createdAt,value
2024-04-17T00:00:45.140Z,6.20
2024-04-17T00:01:51.466Z,5.60
2024-04-17T00:02:55.376Z,5.60
2024-04-17T00:04:02.836Z,6.00
2024-04-17T00:05:09.294Z,5.50
2024-04-17T00:06:14.800Z,6.80
2024-04-17T00:07:21.140Z,5.40
2024-04-17T00:08:24.385Z,5.50
2024-04-17T00:09:28.014Z,5.40
2024-04-17T00:10:31.878Z,5.40
2024-04-17T00:11:38.622Z,5.40
2024-04-17T00:12:42.080Z,5.40
2024-04-17T00:13:45.460Z,5.30
2024-04-17T00:14:49.391Z,5.30
2024-04-17T00:15:56.434Z,5.40
2024-04-17T00:17:03.673Z,5.30
2024-04-17T00:18:09.507Z,5.40
2024-04-17T00:19:13.207Z,5.40
2024-04-17T00:20:22.717Z,5.40
2024-04-17T00:21:29.069Z,5.40
2024-04-17T00:22:32.119Z,5.40
2024-04-17T00:23:38.774Z,4.70
2024-04-17T00:24:42.493Z,5.40
2024-04-17T00:25:45.489Z,5.40
2024-04-17T00:26:49.374Z,5.40
2024-04-17T00:27:54.886Z,5.40
2024-04-17T00:28:58.863Z,6.70
2024-04-17T00:30:02.496Z,5.30
2024-04-17T00:31:12.062Z,5.30
2024-04-17T00:32:23.130Z,5.30
2024-04-17T00:33:27.352Z,5.30
2024-04-17T00:34:30.835Z,5.20
2024-04-17T00:35:35.177Z,4.10
2024-04-17T00:36:44.237Z,5.20
2024-04-17T00:37:47.937Z,5.20
2024-04-17T00:38:52.179Z,5.20
2024-04-17T00:39:55.804Z,5.20
2024-04-17T00:41:02.836Z,5.10
2024-04-17T00:42:06.949Z,5.10
2024-04-17T00:43:11.814Z,5.20
2024-04-17T00:44:18.684Z,4.10
2024-04-17T00:45:31.487Z,5.20
2024-04-17T00:46:39.056Z,5.20
2024-04-17T00:47:45.418Z,5.20
2024-04-17T00:48:51.228Z,5.20
2024-04-17T00:49:55.418Z,5.20
2024-04-17T00:51:01.635Z,5.30
2024-04-17T00:52:07.404Z,5.90
2024-04-17T00:53:17.299Z,5.20
2024-04-17T00:54:23.144Z,5.20
2024-04-17T00:55:27.041Z,5.20
2024-04-17T00:56:35.911Z,5.10
2024-04-17T00:57:41.404Z,5.10
2024-04-17T00:58:45.441Z,5.10
2024-04-17T00:59:49.389Z,5.10
2024-04-17T01:00:55.029Z,5.00
2024-04-17T01:02:04.056Z,5.00
2024-04-17T01:03:23.569Z,5.00
2024-04-17T01:04:30.780Z,4.90
2024-04-17T01:05:35.298Z,5.00
2024-04-17T01:06:39.324Z,4.90
2024-04-17T01:07:43.598Z,4.90
2024-04-17T01:08:50.005Z,4.90
2024-04-17T01:10:00.199Z,4.80
2024-04-17T01:11:04.657Z,4.80
2024-04-17T01:12:08.913Z,4.80
2024-04-17T01:13:14.871Z,4.80
2024-04-17T01:14:19.019Z,4.80
2024-04-17T01:15:25.245Z,3.70
2024-04-17T01:16:29.265Z,5.50
2024-04-17T01:17:35.188Z,6.50
2024-04-17T01:18:42.364Z,4.80
2024-04-17T01:19:47.047Z,4.80
2024-04-17T01:20:50.672Z,4.80
2024-04-17T01:21:56.723Z,4.80
2024-04-17T01:23:00.804Z,4.90
2024-04-17T01:24:07.831Z,4.90
2024-04-17T01:25:11.044Z,4.90
2024-04-17T01:26:14.685Z,4.90
2024-04-17T01:27:23.614Z,4.80
2024-04-17T01:28:27.014Z,4.70
2024-04-17T01:29:30.761Z,4.70
2024-04-17T01:30:37.246Z,4.70
2024-04-17T01:31:43.685Z,5.30
2024-04-17T01:32:47.409Z,4.70
2024-04-17T01:33:51.393Z,4.70
2024-04-17T01:34:58.846Z,4.70
2024-04-17T01:36:02.854Z,4.70
2024-04-17T01:37:07.034Z,4.70
2024-04-17T01:38:14.464Z,4.70
2024-04-17T01:39:20.046Z,4.70
2024-04-17T01:40:23.419Z,4.70
2024-04-17T01:41:30.316Z,4.70
2024-04-17T01:42:33.442Z,4.70
2024-04-17T01:43:36.418Z,4.70
2024-04-17T01:44:42.629Z,4.80
2024-04-17T01:45:50.365Z,4.80
2024-04-17T01:46:53.494Z,4.80
2024-04-17T01:47:57.057Z,4.70
2024-04-17T01:49:03.375Z,4.70
2024-04-17T01:50:13.600Z,4.70
2024-04-17T01:51:17.038Z,4.60
2024-04-17T01:52:23.253Z,4.60
2024-04-17T01:53:27.057Z,4.60
2024-04-17T01:54:35.366Z,6.00
2024-04-17T01:55:39.280Z,4.60
2024-04-17T01:56:50.871Z,6.20
2024-04-17T01:57:54.663Z,4.60
2024-04-17T01:58:57.725Z,4.60
2024-04-17T02:00:01.533Z,4.60
2024-04-17T02:01:17.390Z,4.50
2024-04-17T02:02:20.121Z,4.50
2024-04-17T02:03:24.218Z,4.50
2024-04-17T02:04:30.983Z,4.50
2024-04-17T02:05:34.738Z,4.50
2024-04-17T02:06:38.318Z,4.50
2024-04-17T02:07:44.166Z,4.50
2024-04-17T02:08:51.290Z,4.50
2024-04-17T02:09:57.716Z,2.70
2024-04-17T02:11:01.485Z,4.50
2024-04-17T02:12:05.887Z,4.60
2024-04-17T02:13:11.813Z,4.50
2024-04-17T02:14:16.151Z,4.50
2024-04-17T02:15:20.377Z,4.10
2024-04-17T02:16:24.311Z,4.50
2024-04-17T02:17:31.000Z,4.50
2024-04-17T02:18:36.250Z,4.40
2024-04-17T02:19:39.977Z,4.50
2024-04-17T02:20:45.650Z,4.50
2024-04-17T02:21:51.133Z,5.20
2024-04-17T02:22:55.313Z,4.50
2024-04-17T02:23:59.019Z,4.50
2024-04-17T02:25:07.823Z,4.50
2024-04-17T02:26:14.891Z,4.50
2024-04-17T02:27:19.075Z,4.40
2024-04-17T02:28:23.203Z,5.80
2024-04-17T02:29:29.721Z,4.50
2024-04-17T02:30:32.439Z,4.50
2024-04-17T02:31:43.988Z,4.50
2024-04-17T02:32:52.155Z,4.50
2024-04-17T02:33:58.668Z,4.50
2024-04-17T02:35:33.456Z,4.50
2024-04-17T02:36:37.306Z,4.50
2024-04-17T02:37:40.185Z,4.50
2024-04-17T02:38:49.399Z,4.40
2024-04-17T02:39:52.306Z,4.50
2024-04-17T02:41:14.683Z,4.50
2024-04-17T02:42:19.945Z,4.50
2024-04-17T02:43:27.613Z,4.40
2024-04-17T02:44:33.395Z,4.50
2024-04-17T02:45:36.211Z,4.50
2024-04-17T02:46:47.579Z,4.50
2024-04-17T02:47:55.671Z,4.50
2024-04-17T02:49:01.752Z,4.50
2024-04-17T02:50:07.318Z,4.50
2024-04-17T02:51:12.180Z,4.40
2024-04-17T02:52:15.426Z,4.90
2024-04-17T02:53:23.353Z,4.40
2024-04-17T02:54:28.385Z,5.60
2024-04-17T02:55:33.821Z,4.40
2024-04-17T02:56:44.350Z,4.50
2024-04-17T02:57:51.614Z,4.40
2024-04-17T02:58:59.566Z,4.40
2024-04-17T03:00:08.012Z,4.40
2024-04-17T03:01:17.386Z,4.40
2024-04-17T03:02:23.420Z,4.50
2024-04-17T03:03:28.263Z,4.40
2024-04-17T03:04:39.965Z,4.50
2024-04-17T03:05:44.331Z,4.50
2024-04-17T03:06:51.813Z,4.40
2024-04-17T03:08:03.552Z,5.50
2024-04-17T03:09:13.183Z,4.30
2024-04-17T03:10:48.132Z,4.40
2024-04-17T03:12:00.383Z,4.40
2024-04-17T03:13:07.465Z,4.40
2024-04-17T03:14:11.677Z,4.40
2024-04-17T03:15:19.829Z,4.40
2024-04-17T03:16:29.665Z,3.20
2024-04-17T03:17:35.136Z,3.30
2024-04-17T03:18:41.834Z,4.40
2024-04-17T03:19:47.613Z,4.30
2024-04-17T03:20:55.170Z,4.30
2024-04-17T03:22:02.777Z,4.20
2024-04-17T03:23:07.462Z,4.30
2024-04-17T03:24:11.738Z,4.30
2024-04-17T03:25:20.244Z,4.20
2024-04-17T03:26:24.523Z,5.00
2024-04-17T03:27:35.244Z,4.30
2024-04-17T03:28:41.993Z,4.20
2024-04-17T03:29:46.448Z,5.00
2024-04-17T03:30:56.522Z,4.30
2024-04-17T03:32:12.105Z,4.20
2024-04-17T03:33:18.680Z,4.20
2024-04-17T03:34:21.562Z,4.20
2024-04-17T03:35:24.198Z,4.30
2024-04-17T03:36:32.559Z,4.20
2024-04-17T03:37:43.454Z,4.20
2024-04-17T03:38:47.474Z,4.20
2024-04-17T03:39:54.859Z,4.20
2024-04-17T03:41:01.845Z,4.20
2024-04-17T03:42:07.507Z,4.20
2024-04-17T03:43:14.473Z,4.20
2024-04-17T03:44:20.159Z,4.30
2024-04-17T03:45:28.385Z,4.40
2024-04-17T03:46:32.364Z,4.50
2024-04-17T03:47:39.033Z,4.60
2024-04-17T03:48:44.627Z,4.30
2024-04-17T03:49:48.748Z,4.70
2024-04-17T03:50:52.640Z,4.80
2024-04-17T03:52:04.572Z,4.80
2024-04-17T03:53:11.624Z,6.50
2024-04-17T03:54:19.460Z,4.90
2024-04-17T03:55:24.829Z,5.00
2024-04-17T03:56:28.363Z,5.00
2024-04-17T03:57:31.962Z,5.00
2024-04-17T03:58:40.439Z,5.10
2024-04-17T03:59:48.803Z,5.10
2024-04-17T04:00:57.023Z,5.20
2024-04-17T04:02:04.348Z,5.20
2024-04-17T04:03:12.275Z,5.30
2024-04-17T04:04:23.993Z,5.20
2024-04-17T04:05:31.976Z,5.40
2024-04-17T04:06:38.898Z,5.20
2024-04-17T04:07:44.464Z,5.30
2024-04-17T04:08:50.994Z,5.40
2024-04-17T04:09:55.882Z,5.40
2024-04-17T04:11:08.011Z,5.50
2024-04-17T04:12:18.692Z,5.50
2024-04-17T04:13:23.812Z,5.60
2024-04-17T04:14:32.086Z,5.90
2024-04-17T04:15:40.841Z,6.30
2024-04-17T04:16:44.557Z,6.60
2024-04-17T04:17:52.472Z,7.00
2024-04-17T04:19:00.608Z,7.70
2024-04-17T04:20:08.080Z,8.50
2024-04-17T04:21:16.232Z,9.20
2024-04-17T04:22:23.761Z,9.80
2024-04-17T04:23:28.626Z,10.40
2024-04-17T04:24:34.191Z,11.00
2024-04-17T04:25:39.664Z,11.60
2024-04-17T04:26:47.162Z,11.90
2024-04-17T04:27:52.813Z,12.40
2024-04-17T04:29:03.970Z,12.90
2024-04-17T04:30:12.842Z,13.30
2024-04-17T04:31:18.108Z,13.70
2024-04-17T04:32:23.735Z,13.90
2024-04-17T04:33:31.797Z,14.00
2024-04-17T04:34:40.040Z,13.80
2024-04-17T04:35:47.130Z,13.40
2024-04-17T04:36:56.945Z,12.70
2024-04-17T04:38:00.486Z,11.90
2024-04-17T04:39:07.604Z,11.60
2024-04-17T04:40:14.900Z,11.40
2024-04-17T04:41:24.754Z,11.30
2024-04-17T04:42:28.407Z,11.20
2024-04-17T04:43:33.173Z,11.20
2024-04-17T04:44:43.682Z,10.20
2024-04-17T04:45:51.660Z,11.40
2024-04-17T04:47:00.718Z,11.50
2024-04-17T04:48:11.347Z,11.60
2024-04-17T04:49:20.670Z,11.80
2024-04-17T04:50:26.123Z,11.90
2024-04-17T04:51:28.810Z,12.00
2024-04-17T04:52:37.939Z,12.10
2024-04-17T04:53:40.578Z,12.90
2024-04-17T04:54:44.797Z,12.30
2024-04-17T04:56:00.815Z,12.40
2024-04-17T04:57:08.064Z,12.40
2024-04-17T04:58:16.264Z,12.50
2024-04-17T04:59:23.666Z,12.60
2024-04-17T05:00:32.140Z,13.00
2024-04-17T05:01:42.064Z,14.30
2024-04-17T05:02:46.287Z,12.80
2024-04-17T05:03:54.417Z,12.80
2024-04-17T05:05:00.509Z,12.90
2024-04-17T05:06:04.812Z,13.00
2024-04-17T05:07:16.425Z,13.20
2024-04-17T05:08:24.576Z,13.30
2024-04-17T05:09:31.660Z,13.40
2024-04-17T05:10:35.568Z,13.40
2024-04-17T05:11:38.170Z,13.40
2024-04-17T05:12:43.651Z,13.60
2024-04-17T05:13:48.937Z,13.70
2024-04-17T05:14:58.069Z,13.70
2024-04-17T05:16:08.456Z,13.80
2024-04-17T05:17:20.696Z,13.90
2024-04-17T05:18:24.594Z,13.90
2024-04-17T05:19:32.787Z,13.90
2024-04-17T05:20:42.002Z,14.00
2024-04-17T05:21:44.663Z,14.00
2024-04-17T05:23:00.262Z,14.00
2024-04-17T05:24:10.174Z,14.10
2024-04-17T05:25:16.060Z,14.00
2024-04-17T05:26:28.152Z,14.20
2024-04-17T05:27:35.574Z,14.20
2024-04-17T05:28:38.831Z,14.20
2024-04-17T05:29:47.142Z,14.40
2024-04-17T05:31:01.886Z,14.40
2024-04-17T05:32:04.749Z,14.60
2024-04-17T05:33:18.668Z,14.60
2024-04-17T05:34:23.674Z,14.50
2024-04-17T05:35:34.218Z,14.50
2024-04-17T05:36:48.051Z,14.60
2024-04-17T05:37:56.926Z,14.60
2024-04-17T05:39:04.534Z,15.20
2024-04-17T05:40:16.191Z,14.70
2024-04-17T05:41:24.098Z,14.70
2024-04-17T05:42:32.409Z,14.80
2024-04-17T05:43:46.739Z,14.80
2024-04-17T05:44:52.571Z,14.80
2024-04-17T05:45:56.031Z,14.90
2024-04-17T05:47:15.858Z,15.00
2024-04-17T05:48:23.869Z,15.00
2024-04-17T05:49:29.926Z,15.10
2024-04-17T05:50:46.087Z,15.20
2024-04-17T05:51:48.751Z,15.00
2024-04-17T05:52:52.114Z,15.10
2024-04-17T05:54:02.236Z,15.20
2024-04-17T05:55:07.841Z,15.30
2024-04-17T05:56:11.252Z,15.40
2024-04-17T05:57:13.934Z,15.50
2024-04-17T05:58:19.365Z,15.50
2024-04-17T05:59:24.802Z,15.50
2024-04-17T06:00:32.963Z,15.50
2024-04-17T06:01:40.758Z,15.40
2024-04-17T06:02:48.315Z,15.20
2024-04-17T06:03:56.844Z,15.00
2024-04-17T06:05:11.094Z,15.20
2024-04-17T06:06:16.070Z,15.00
2024-04-17T06:07:24.779Z,15.10
2024-04-17T06:08:32.185Z,15.30
2024-04-17T06:09:40.664Z,15.40
2024-04-17T06:10:52.475Z,15.20
2024-04-17T06:12:00.411Z,15.20
2024-04-17T06:13:07.470Z,15.40
2024-04-17T06:14:19.237Z,15.50
2024-04-17T06:15:24.934Z,15.60
2024-04-17T06:16:35.912Z,15.70
2024-04-17T06:17:43.984Z,15.70
2024-04-17T06:18:52.718Z,15.70
2024-04-17T06:20:03.939Z,16.60
2024-04-17T06:21:12.548Z,15.80
2024-04-17T06:22:19.471Z,15.70
2024-04-17T06:23:28.786Z,15.60
2024-04-17T06:24:35.523Z,15.60
2024-04-17T06:25:52.402Z,15.60
2024-04-17T06:27:00.376Z,15.50
2024-04-17T06:28:16.452Z,15.30
2024-04-17T06:29:20.596Z,14.80
2024-04-17T06:30:28.389Z,14.80
2024-04-17T06:31:47.188Z,14.60
2024-04-17T06:32:52.383Z,14.60
2024-04-17T06:34:03.971Z,14.50
2024-04-17T06:35:18.430Z,14.30
2024-04-17T06:36:23.741Z,14.00
2024-04-17T06:37:31.335Z,13.30
2024-04-17T06:38:33.958Z,13.30
2024-04-17T06:39:40.208Z,13.20
2024-04-17T06:40:48.395Z,13.30
2024-04-17T06:42:02.378Z,13.10
2024-04-17T06:43:07.128Z,13.40
2024-04-17T06:44:15.077Z,13.50
2024-04-17T06:45:20.772Z,13.50
2024-04-17T06:46:32.660Z,13.30
2024-04-17T06:47:48.074Z,13.00
2024-04-17T06:48:52.476Z,12.80
2024-04-17T06:50:03.165Z,12.70
2024-04-17T06:51:10.895Z,12.30
2024-04-17T06:52:19.742Z,12.30
2024-04-17T06:53:23.748Z,12.20
2024-04-17T06:54:30.091Z,12.20
2024-04-17T06:55:32.751Z,12.10
2024-04-17T06:56:38.152Z,11.80
2024-04-17T06:57:43.666Z,11.30
2024-04-17T06:58:48.628Z,11.40
2024-04-17T06:59:55.876Z,11.50
2024-04-17T07:01:03.811Z,11.50
2024-04-17T07:02:10.254Z,11.60
2024-04-17T07:03:15.903Z,12.50
2024-04-17T07:04:23.655Z,11.60
2024-04-17T07:05:32.505Z,11.60
2024-04-17T07:06:39.736Z,11.60
2024-04-17T07:07:48.114Z,11.60
2024-04-17T07:08:55.678Z,11.60
2024-04-17T07:10:03.982Z,11.50
2024-04-17T07:12:28.530Z,11.50
2024-04-17T07:13:34.510Z,11.50
2024-04-17T07:14:39.992Z,11.30
2024-04-17T07:15:47.444Z,11.00
2024-04-17T07:17:03.022Z,11.20
2024-04-17T07:18:06.774Z,11.20
2024-04-17T07:19:16.757Z,11.30
2024-04-17T07:20:31.497Z,11.50
2024-04-17T07:21:35.998Z,11.60
2024-04-17T07:22:44.019Z,11.90
2024-04-17T07:23:48.575Z,11.90
2024-04-17T07:24:56.684Z,11.40
2024-04-17T07:26:07.868Z,11.70
2024-04-17T07:27:28.462Z,11.80
2024-04-17T07:28:36.670Z,12.00
2024-04-17T07:29:40.645Z,12.10
2024-04-17T07:30:46.776Z,12.50
2024-04-17T07:31:51.762Z,12.70
2024-04-17T07:33:00.254Z,12.90
2024-04-17T07:34:08.853Z,12.90
2024-04-17T07:35:44.068Z,14.80
2024-04-17T07:37:00.085Z,13.20
2024-04-17T07:38:08.795Z,13.10
2024-04-17T07:39:20.160Z,12.10
2024-04-17T07:40:32.542Z,13.20
2024-04-17T07:41:38.979Z,13.30
2024-04-17T07:42:43.536Z,13.40
2024-04-17T07:43:52.500Z,13.60
2024-04-17T07:44:56.561Z,13.80
2024-04-17T07:46:03.641Z,14.00
2024-04-17T07:47:12.682Z,14.10
2024-04-17T07:48:19.390Z,14.20
2024-04-17T07:49:22.828Z,14.40
2024-04-17T07:50:27.926Z,14.70
2024-04-17T07:51:36.386Z,14.70
2024-04-17T07:52:43.695Z,14.60
2024-04-17T07:53:47.861Z,14.50
2024-04-17T07:54:55.611Z,14.40
2024-04-17T07:56:03.874Z,14.20
2024-04-17T07:57:12.784Z,14.10
2024-04-17T07:58:18.053Z,14.00
2024-04-17T07:59:32.730Z,13.90
2024-04-17T08:00:40.202Z,13.90
2024-04-17T08:01:45.072Z,13.80
2024-04-17T08:02:51.423Z,13.80
2024-04-17T08:04:00.526Z,13.30
2024-04-17T08:05:08.673Z,14.50
2024-04-17T08:06:18.977Z,13.20
2024-04-17T08:07:31.795Z,13.60
2024-04-17T08:08:40.398Z,12.90
2024-04-17T08:09:46.920Z,12.80
2024-04-17T08:10:52.012Z,12.50
2024-04-17T08:11:59.787Z,12.50
2024-04-17T08:13:15.928Z,12.40
2024-04-17T08:14:24.268Z,12.10
2024-04-17T08:15:32.591Z,12.20
2024-04-17T08:16:41.537Z,12.10
2024-04-17T08:17:47.795Z,12.20
2024-04-17T08:18:51.924Z,12.30
2024-04-17T08:20:00.263Z,12.20
2024-04-17T08:21:10.259Z,12.20
2024-04-17T08:22:16.180Z,12.20
2024-04-17T08:23:24.120Z,12.20
2024-04-17T08:24:32.298Z,12.20
2024-04-17T08:25:35.760Z,12.20
2024-04-17T08:26:43.620Z,12.10
2024-04-17T08:27:51.986Z,12.00
2024-04-17T08:29:01.018Z,12.00
2024-04-17T08:30:23.030Z,12.00
2024-04-17T08:31:28.273Z,11.90
2024-04-17T08:32:36.985Z,11.90
2024-04-17T08:33:47.056Z,11.90
2024-04-17T08:34:52.262Z,11.80
2024-04-17T08:36:04.785Z,11.80
2024-04-17T08:37:10.680Z,11.80
2024-04-17T08:38:20.438Z,11.70
2024-04-17T08:39:31.896Z,12.80
2024-04-17T08:40:40.090Z,11.60
2024-04-17T08:42:34.994Z,11.70
2024-04-17T08:43:29.199Z,11.40
2024-04-17T08:44:48.700Z,11.30
2024-04-17T08:45:56.803Z,11.60
2024-04-17T08:47:23.898Z,11.70
2024-04-17T08:48:28.004Z,11.80
2024-04-17T08:49:36.258Z,11.90
2024-04-17T08:50:46.110Z,12.00
2024-04-17T08:51:52.153Z,11.90
2024-04-17T08:52:56.642Z,12.00
2024-04-17T08:54:03.639Z,12.10
2024-04-17T08:55:20.644Z,12.30
2024-04-17T08:56:27.797Z,12.40
2024-04-17T08:57:35.994Z,12.50
2024-04-17T08:58:51.368Z,12.60
2024-04-17T09:00:06.915Z,12.60
2024-04-17T09:01:23.483Z,12.60
2024-04-17T09:02:31.688Z,12.70
2024-04-17T09:03:44.303Z,12.70
2024-04-17T09:04:52.192Z,12.70
2024-04-17T09:06:00.022Z,10.50
2024-04-17T09:08:31.063Z,12.80
2024-04-17T09:09:35.867Z,12.80
2024-04-17T09:10:44.219Z,12.80
2024-04-17T09:11:52.512Z,12.70
2024-04-17T09:12:57.943Z,14.50
2024-04-17T09:14:13.980Z,12.90
2024-04-17T09:15:21.972Z,12.90
2024-04-17T09:16:26.914Z,12.90
2024-04-17T09:17:32.418Z,12.90
2024-04-17T09:18:43.668Z,12.80
2024-04-17T09:19:50.725Z,12.70
2024-04-17T09:21:02.254Z,12.60
2024-04-17T09:22:07.806Z,12.70
2024-04-17T09:23:16.423Z,12.70
2024-04-17T09:24:20.592Z,12.70
2024-04-17T09:25:35.066Z,12.50
2024-04-17T09:26:51.532Z,12.50
2024-04-17T09:28:00.292Z,12.60
2024-04-17T09:29:10.193Z,15.00
2024-04-17T09:30:17.036Z,12.90
2024-04-17T09:31:28.257Z,12.90
2024-04-17T09:32:35.891Z,12.90
2024-04-17T09:33:56.223Z,13.00
2024-04-17T09:35:06.975Z,14.40
2024-04-17T09:36:10.247Z,12.90
2024-04-17T09:37:19.539Z,12.80
2024-04-17T09:38:32.330Z,12.80
2024-04-17T09:39:38.092Z,12.70
2024-04-17T09:40:48.917Z,12.60
2024-04-17T09:42:03.615Z,12.60
2024-04-17T09:43:30.007Z,12.50
2024-04-17T09:44:44.090Z,12.40
2024-04-17T09:46:12.431Z,12.50
2024-04-17T09:47:23.815Z,12.50
2024-04-17T09:48:32.111Z,12.20
2024-04-17T09:49:43.592Z,12.40
2024-04-17T09:50:52.402Z,12.50
2024-04-17T09:51:59.474Z,12.30
2024-04-17T09:53:04.706Z,12.40
2024-04-17T09:54:26.023Z,12.40
2024-04-17T09:55:32.077Z,12.40
2024-04-17T09:56:36.692Z,12.30
2024-04-17T09:57:54.058Z,12.20
2024-04-17T09:59:08.700Z,12.30
2024-04-17T10:00:20.561Z,12.20
2024-04-17T10:01:31.679Z,12.30
2024-04-17T10:02:36.324Z,12.20
2024-04-17T10:03:44.716Z,12.10
2024-04-17T10:04:51.688Z,12.10
2024-04-17T10:05:56.050Z,11.30
2024-04-17T10:07:10.887Z,12.10
2024-04-17T10:08:19.448Z,12.00
2024-04-17T10:09:24.600Z,13.00
2024-04-17T10:10:42.845Z,12.10
2024-04-17T10:11:56.790Z,11.80
2024-04-17T10:13:19.663Z,11.80
2024-04-17T10:14:32.287Z,11.60
2024-04-17T10:15:40.897Z,11.70
2024-04-17T10:16:47.824Z,11.70
2024-04-17T10:17:56.855Z,11.80
2024-04-17T10:19:03.954Z,11.70
2024-04-17T10:20:30.022Z,11.70
2024-04-17T10:21:43.842Z,11.60
2024-04-17T10:22:52.396Z,11.50
2024-04-17T10:24:04.345Z,11.50
2024-04-17T10:25:20.649Z,11.50
2024-04-17T10:26:49.051Z,10.90
2024-04-17T10:27:52.726Z,11.00
2024-04-17T10:29:03.409Z,11.10
2024-04-17T10:30:16.628Z,11.20
2024-04-17T10:31:23.530Z,11.30
2024-04-17T10:32:35.323Z,11.40
2024-04-17T10:33:44.129Z,11.50
2024-04-17T10:35:00.361Z,11.40
2024-04-17T10:36:07.847Z,11.40
2024-04-17T10:37:16.447Z,11.30
2024-04-17T10:38:32.073Z,11.30
2024-04-17T10:39:44.239Z,11.20
2024-04-17T10:40:52.469Z,10.90
2024-04-17T10:42:03.690Z,10.90
2024-04-17T10:43:20.027Z,11.00
2024-04-17T10:44:32.288Z,10.90
2024-04-17T10:45:36.761Z,9.80
2024-04-17T10:46:50.464Z,10.70
2024-04-17T10:47:55.577Z,10.70
2024-04-17T10:48:59.115Z,10.70
2024-04-17T10:50:15.931Z,10.70
2024-04-17T10:51:24.578Z,10.80
2024-04-17T10:52:31.811Z,10.60
2024-04-17T10:53:47.343Z,9.00
2024-04-17T10:54:55.270Z,10.60
2024-04-17T10:56:05.861Z,10.50
2024-04-17T10:57:20.177Z,10.60
2024-04-17T10:58:28.349Z,10.60
2024-04-17T10:59:42.072Z,10.60
2024-04-17T11:00:47.441Z,10.60
2024-04-17T11:01:52.512Z,10.50
2024-04-17T11:02:59.827Z,10.50
2024-04-17T11:04:07.644Z,10.50
2024-04-17T11:05:32.479Z,11.70
2024-04-17T11:06:40.575Z,10.50
2024-04-17T11:07:47.112Z,10.50
2024-04-17T11:08:58.439Z,10.50
2024-04-17T11:10:19.689Z,10.60
2024-04-17T11:11:27.055Z,10.60
2024-04-17T11:12:33.898Z,10.60
2024-04-17T11:13:48.252Z,10.80
2024-04-17T11:15:08.023Z,10.60
2024-04-17T11:16:19.790Z,10.60
2024-04-17T11:17:29.065Z,12.70
2024-04-17T11:18:38.380Z,10.60
2024-04-17T11:19:44.030Z,10.60
2024-04-17T11:20:51.806Z,10.60
2024-04-17T11:22:03.717Z,10.60
2024-04-17T11:23:09.989Z,10.70
2024-04-17T11:24:24.160Z,10.60
2024-04-17T11:25:32.662Z,10.70
2024-04-17T11:26:40.743Z,10.70
2024-04-17T11:27:46.896Z,10.70
2024-04-17T11:28:52.588Z,10.80
2024-04-17T11:30:24.258Z,10.80
2024-04-17T11:31:31.982Z,10.80
2024-04-17T11:32:40.435Z,10.80
2024-04-17T11:33:56.290Z,10.00
2024-04-17T11:35:19.451Z,10.80
2024-04-17T11:36:23.739Z,10.10
2024-04-17T11:37:32.120Z,10.70
2024-04-17T11:38:38.734Z,10.60
2024-04-17T11:39:51.120Z,11.70
2024-04-17T11:40:54.015Z,10.60
2024-04-17T11:41:59.585Z,10.70
2024-04-17T11:43:07.363Z,10.80
2024-04-17T11:44:18.404Z,10.80
2024-04-17T11:45:31.406Z,12.40
2024-04-17T11:46:35.911Z,10.70
2024-04-17T11:47:44.563Z,10.70
2024-04-17T11:48:52.750Z,10.70
2024-04-17T11:49:59.975Z,10.60
2024-04-17T11:51:08.286Z,10.50
2024-04-17T11:52:19.468Z,10.40
2024-04-17T11:53:28.367Z,10.50
2024-04-17T11:54:36.539Z,10.60
2024-04-17T11:55:40.799Z,10.60
2024-04-17T11:56:47.842Z,10.60
2024-04-17T11:57:56.459Z,10.60
2024-04-17T11:59:08.122Z,10.60
2024-04-17T12:00:27.891Z,10.60
2024-04-17T12:01:36.404Z,10.30
2024-04-17T12:02:44.718Z,10.50
2024-04-17T12:03:55.967Z,10.60
2024-04-17T12:05:04.169Z,10.60
2024-04-17T12:06:15.565Z,10.70
2024-04-17T12:07:24.574Z,10.80
2024-04-17T12:08:32.528Z,10.90
2024-04-17T12:09:43.689Z,10.90
2024-04-17T12:10:51.535Z,11.00
2024-04-17T12:11:58.381Z,11.10
2024-04-17T12:13:03.983Z,11.20
2024-04-17T12:14:14.800Z,11.40
2024-04-17T12:15:17.787Z,11.70
2024-04-17T12:16:28.305Z,11.80
2024-04-17T12:17:34.989Z,11.80
2024-04-17T12:18:38.827Z,11.90
2024-04-17T12:19:44.323Z,11.90
2024-04-17T12:20:52.831Z,12.00
2024-04-17T12:21:59.700Z,12.00
2024-04-17T12:23:08.220Z,11.90
2024-04-17T12:24:24.086Z,11.90
2024-04-17T12:25:48.563Z,11.90
2024-04-17T12:26:59.622Z,11.70
2024-04-17T12:28:04.353Z,11.70
2024-04-17T12:29:19.829Z,11.80
2024-04-17T12:30:27.251Z,11.80
2024-04-17T12:31:34.300Z,11.80
2024-04-17T12:32:51.597Z,11.80
2024-04-17T12:33:59.434Z,11.80
2024-04-17T12:35:09.831Z,11.70
2024-04-17T12:36:23.952Z,11.70
2024-04-17T12:37:32.364Z,11.30
2024-04-17T12:38:42.079Z,12.10
2024-04-17T12:39:46.187Z,11.30
2024-04-17T12:40:51.646Z,11.30
2024-04-17T12:42:00.360Z,11.30
2024-04-17T12:43:13.729Z,11.10
2024-04-17T12:44:19.081Z,11.20
2024-04-17T12:45:21.714Z,10.90
2024-04-17T12:46:26.990Z,11.00
2024-04-17T12:47:32.370Z,11.10
2024-04-17T12:48:43.959Z,11.30
2024-04-17T12:49:52.394Z,11.00
2024-04-17T12:51:04.385Z,9.20
2024-04-17T12:52:07.996Z,10.90
2024-04-17T12:53:26.869Z,10.70
2024-04-17T12:54:29.644Z,10.70
2024-04-17T12:55:32.365Z,10.70
2024-04-17T12:56:43.144Z,10.80
2024-04-17T12:57:51.708Z,10.50
2024-04-17T12:58:59.179Z,10.60
2024-04-17T13:00:06.929Z,10.40
2024-04-17T13:01:15.482Z,10.30
2024-04-17T13:02:31.038Z,10.60
2024-04-17T13:03:44.020Z,10.50
2024-04-17T13:04:49.614Z,10.50
2024-04-17T13:06:04.418Z,10.70
2024-04-17T13:07:08.097Z,10.70
2024-04-17T13:08:23.041Z,10.70
2024-04-17T13:09:31.778Z,10.40
2024-04-17T13:10:40.564Z,10.50
2024-04-17T13:11:52.113Z,12.50
2024-04-17T13:12:59.125Z,10.80
2024-04-17T13:14:14.953Z,10.90
2024-04-17T13:15:23.375Z,10.80
2024-04-17T13:16:34.331Z,10.90
2024-04-17T13:17:39.555Z,10.80
2024-04-17T13:18:47.364Z,11.00
2024-04-17T13:19:55.301Z,11.00
2024-04-17T13:21:09.883Z,10.70
2024-04-17T13:22:13.814Z,10.50
2024-04-17T13:23:22.460Z,10.40
2024-04-17T13:24:28.075Z,10.40
2024-04-17T13:25:35.718Z,10.30
2024-04-17T13:26:44.321Z,10.20
2024-04-17T13:27:55.504Z,10.00
2024-04-17T13:29:03.612Z,9.90
2024-04-17T13:30:13.731Z,9.80
2024-04-17T13:31:16.341Z,9.30
2024-04-17T13:32:27.518Z,9.20
2024-04-17T13:33:35.293Z,9.10
2024-04-17T13:34:43.465Z,9.10
2024-04-17T13:36:00.485Z,9.10
2024-04-17T13:37:06.706Z,9.00
2024-04-17T13:38:09.780Z,9.00
2024-04-17T13:39:21.782Z,8.90
2024-04-17T13:40:30.466Z,8.80
2024-04-17T13:41:46.526Z,8.70
2024-04-17T13:42:52.310Z,8.80
2024-04-17T13:43:59.453Z,8.80
2024-04-17T13:45:07.902Z,8.80
2024-04-17T13:46:20.268Z,8.70
2024-04-17T13:47:24.330Z,8.60
2024-04-17T13:48:34.952Z,8.70
2024-04-17T13:49:40.599Z,8.80
2024-04-17T13:51:02.797Z,8.80
2024-04-17T13:52:22.037Z,10.00
2024-04-17T13:53:27.457Z,8.80
2024-04-17T13:54:36.086Z,8.80
2024-04-17T13:55:43.043Z,8.80
2024-04-17T13:56:48.431Z,8.80
2024-04-17T13:58:00.137Z,8.70
2024-04-17T13:59:07.266Z,8.60
2024-04-17T14:00:19.146Z,8.40
2024-04-17T14:01:27.506Z,9.60
2024-04-17T14:02:36.157Z,8.40
2024-04-17T14:03:51.049Z,8.30
2024-04-17T14:04:59.199Z,8.10
2024-04-17T14:06:03.832Z,8.70
2024-04-17T14:07:13.979Z,7.80
2024-04-17T14:08:21.133Z,6.60
2024-04-17T14:09:25.712Z,8.70
2024-04-17T14:10:31.426Z,9.70
2024-04-17T14:11:39.168Z,10.10
2024-04-17T14:12:43.690Z,10.20
2024-04-17T14:13:51.705Z,9.90
2024-04-17T14:14:59.982Z,9.10
2024-04-17T14:16:07.508Z,9.10
2024-04-17T14:17:15.198Z,9.00
2024-04-17T14:18:20.496Z,8.90
2024-04-17T14:19:31.727Z,8.80
2024-04-17T14:20:51.588Z,8.80
2024-04-17T14:22:00.492Z,8.60
2024-04-17T14:23:22.712Z,8.50
2024-04-17T14:24:35.789Z,8.50
2024-04-17T14:25:44.114Z,8.40
2024-04-17T14:26:47.941Z,8.40
2024-04-17T14:27:56.454Z,8.30
2024-04-17T14:29:07.833Z,8.40
2024-04-17T14:30:20.055Z,9.60
2024-04-17T14:31:23.758Z,8.40
2024-04-17T14:32:32.008Z,8.20
2024-04-17T14:33:44.536Z,8.20
2024-04-17T14:34:48.039Z,8.20
2024-04-17T14:35:58.693Z,8.20
2024-04-17T14:37:04.119Z,8.20
2024-04-17T14:39:27.292Z,8.30
2024-04-17T14:40:34.452Z,8.40
2024-04-17T14:41:47.093Z,8.40
2024-04-17T14:42:55.623Z,8.00
2024-04-17T14:44:03.794Z,8.60
2024-04-17T14:45:15.927Z,8.60
2024-04-17T14:46:21.740Z,8.60
2024-04-17T14:47:27.031Z,7.30
2024-04-17T14:48:39.799Z,8.50
2024-04-17T14:49:47.746Z,8.50
2024-04-17T14:51:06.698Z,8.40
2024-04-17T14:52:22.829Z,8.30
2024-04-17T14:53:31.413Z,8.40
2024-04-17T14:54:36.724Z,8.40
2024-04-17T14:56:26.858Z,8.50
2024-04-17T14:58:00.354Z,8.40